createdAt,value
2018-08-22T00:01:57.585Z,28.70
2018-08-22T00:04:30.699Z,28.60
2018-08-22T00:07:03.971Z,28.70
2018-08-22T00:09:36.944Z,28.70
2018-08-22T00:12:09.860Z,28.70
2018-08-22T00:14:42.835Z,28.60
2018-08-22T00:17:15.810Z,28.60
2018-08-22T00:19:50.024Z,28.60
2018-08-22T00:22:22.922Z,28.70
2018-08-22T00:24:56.525Z,28.70
2018-08-22T00:27:29.356Z,28.70
2018-08-22T00:30:02.331Z,28.70
2018-08-22T00:32:35.296Z,28.80
2018-08-22T00:35:09.067Z,28.80
2018-08-22T00:37:43.290Z,28.80
2018-08-22T00:40:16.298Z,28.80
2018-08-22T00:42:49.243Z,28.80
2018-08-22T00:45:22.085Z,28.90
2018-08-22T00:47:54.953Z,28.80
2018-08-22T00:50:28.561Z,28.80
2018-08-22T00:53:01.625Z,28.90
2018-08-22T00:55:34.562Z,28.80
2018-08-22T00:58:07.469Z,28.80
2018-08-22T01:00:40.371Z,28.80
2018-08-22T01:03:13.907Z,28.80
2018-08-22T01:05:47.177Z,28.80
2018-08-22T01:08:20.756Z,28.80
2018-08-22T01:10:54.190Z,28.80
2018-08-22T01:13:27.715Z,28.80
2018-08-22T01:16:01.241Z,28.80
2018-08-22T01:18:34.753Z,28.80
2018-08-22T01:21:09.166Z,28.80
2018-08-22T01:23:42.681Z,28.70
2018-08-22T01:26:16.097Z,28.70
2018-08-22T01:28:49.405Z,28.70
2018-08-22T01:31:22.315Z,28.70
2018-08-22T01:33:56.233Z,28.70
2018-08-22T01:36:29.143Z,28.80
2018-08-22T01:39:03.049Z,28.80
2018-08-22T01:41:35.887Z,28.80
2018-08-22T01:44:09.742Z,28.80
2018-08-22T01:46:42.738Z,28.80
2018-08-22T01:49:15.578Z,28.70
2018-08-22T01:51:50.967Z,28.70
2018-08-22T01:54:23.797Z,28.70
2018-08-22T01:56:56.612Z,28.70
2018-08-22T01:59:29.596Z,28.70
2018-08-22T02:02:03.357Z,28.70
2018-08-22T02:04:36.567Z,28.70
2018-08-22T02:07:09.474Z,28.70
2018-08-22T02:09:42.379Z,28.70
2018-08-22T02:12:15.272Z,28.70
2018-08-22T02:14:48.160Z,28.80
2018-08-22T02:17:21.332Z,28.80
2018-08-22T02:19:54.197Z,28.80
2018-08-22T02:22:27.383Z,28.80
2018-08-22T02:25:00.571Z,28.80
2018-08-22T02:27:33.507Z,28.80
2018-08-22T02:30:06.455Z,28.80
2018-08-22T02:32:39.303Z,28.80
2018-08-22T02:35:13.752Z,28.80
2018-08-22T02:37:46.794Z,28.80
2018-08-22T02:40:19.747Z,28.80
2018-08-22T02:42:52.632Z,28.80
2018-08-22T02:45:25.566Z,28.80
2018-08-22T02:47:59.294Z,28.80
2018-08-22T02:50:32.233Z,28.90
2018-08-22T02:53:05.201Z,29.00
2018-08-22T02:55:38.198Z,29.00
2018-08-22T02:58:11.322Z,29.00
2018-08-22T03:00:45.954Z,29.00
2018-08-22T03:03:19.066Z,29.00
2018-08-22T03:05:52.653Z,29.10
2018-08-22T03:08:25.716Z,29.10
2018-08-22T03:10:58.727Z,29.00
2018-08-22T03:13:31.650Z,29.00
2018-08-22T03:16:04.622Z,29.00
2018-08-22T03:18:37.781Z,29.00
2018-08-22T03:21:10.816Z,29.00
2018-08-22T03:23:44.624Z,29.00
2018-08-22T03:26:17.590Z,29.00
2018-08-22T03:28:50.637Z,29.00
2018-08-22T03:31:24.147Z,29.10
2018-08-22T03:33:57.119Z,29.00
2018-08-22T03:36:30.061Z,29.10
2018-08-22T03:39:02.943Z,29.10
2018-08-22T03:41:35.810Z,29.10
2018-08-22T03:44:08.703Z,29.10
2018-08-22T03:46:41.572Z,29.10
2018-08-22T03:49:15.040Z,29.10
2018-08-22T03:51:47.941Z,29.10
2018-08-22T03:54:20.768Z,29.10
2018-08-22T03:56:53.690Z,29.10
2018-08-22T03:59:26.604Z,29.10
2018-08-22T04:02:00.120Z,29.10
2018-08-22T04:04:33.039Z,29.10
2018-08-22T04:07:06.882Z,29.10
2018-08-22T04:09:39.794Z,29.10
2018-08-22T04:12:12.771Z,29.20
2018-08-22T04:14:45.981Z,29.10
2018-08-22T04:17:18.991Z,29.10
2018-08-22T04:19:52.649Z,29.10
2018-08-22T04:22:25.605Z,29.10
2018-08-22T04:24:58.771Z,29.10
2018-08-22T04:27:31.780Z,29.00
2018-08-22T04:30:04.768Z,29.10
2018-08-22T04:32:38.226Z,29.00
2018-08-22T04:35:11.231Z,28.90
2018-08-22T04:37:44.079Z,28.80
2018-08-22T04:40:18.487Z,28.80
2018-08-22T04:42:52.651Z,28.80
2018-08-22T04:45:26.320Z,28.90
2018-08-22T04:47:59.304Z,28.80
2018-08-22T04:50:32.227Z,28.80
2018-08-22T04:53:05.141Z,28.90
2018-08-22T04:55:38.082Z,28.90
2018-08-22T04:58:12.183Z,29.00
2018-08-22T05:00:45.051Z,29.10
2018-08-22T05:03:18.510Z,29.10
2018-08-22T05:05:51.432Z,29.10
2018-08-22T05:08:24.364Z,29.20
2018-08-22T05:10:57.263Z,29.20
2018-08-22T05:13:30.272Z,29.10
2018-08-22T05:16:03.724Z,29.20
2018-08-22T05:18:37.365Z,29.20
2018-08-22T05:21:10.772Z,29.20
2018-08-22T05:23:43.683Z,29.20
2018-08-22T05:26:16.840Z,29.20
2018-08-22T05:28:50.207Z,29.20
2018-08-22T05:31:23.095Z,29.20
2018-08-22T05:33:57.939Z,29.20
2018-08-22T05:36:30.737Z,29.20
2018-08-22T05:39:03.707Z,29.20
2018-08-22T05:41:36.665Z,29.20
2018-08-22T05:44:09.642Z,29.30
2018-08-22T05:46:43.286Z,29.30
2018-08-22T05:49:16.237Z,29.20
2018-08-22T05:51:50.025Z,29.20
2018-08-22T05:54:23.507Z,29.20
2018-08-22T05:56:56.400Z,29.10
2018-08-22T05:59:30.069Z,29.10
2018-08-22T06:02:03.035Z,29.10
2018-08-22T06:04:36.024Z,29.00
2018-08-22T06:07:08.878Z,29.00
2018-08-22T06:09:41.820Z,29.00
2018-08-22T06:12:15.341Z,29.00
2018-08-22T06:14:48.288Z,29.10
2018-08-22T06:17:21.950Z,29.00
2018-08-22T06:19:54.891Z,29.00
2018-08-22T06:22:27.915Z,29.10
2018-08-22T06:25:00.916Z,29.10
2018-08-22T06:27:34.653Z,29.00
2018-08-22T06:30:09.695Z,29.10
2018-08-22T06:32:42.562Z,29.00
2018-08-22T06:35:15.439Z,29.00
2018-08-22T06:37:48.387Z,28.90
2018-08-22T06:40:22.011Z,28.90
2018-08-22T06:42:55.600Z,28.80
2018-08-22T06:45:28.587Z,28.90
2018-08-22T06:48:02.365Z,29.00
2018-08-22T06:50:35.264Z,29.00
2018-08-22T06:53:08.185Z,29.00
2018-08-22T06:55:41.120Z,29.00
2018-08-22T06:58:14.036Z,28.90
2018-08-22T07:00:47.340Z,28.90
2018-08-22T07:03:20.368Z,28.80
2018-08-22T07:05:53.256Z,28.80
2018-08-22T07:08:26.054Z,28.80
2018-08-22T07:10:59.084Z,28.80
2018-08-22T07:13:33.321Z,28.80
2018-08-22T07:16:06.374Z,28.80
2018-08-22T07:16:47.324Z,28.80
2018-08-22T07:17:25.376Z,28.80
2018-08-22T07:18:03.259Z,28.80
2018-08-22T07:18:41.248Z,28.80
2018-08-22T07:19:19.101Z,28.80
2018-08-22T07:19:57.059Z,28.80
2018-08-22T07:20:35.071Z,28.80
2018-08-22T07:21:12.968Z,28.80
2018-08-22T07:21:50.942Z,28.80
2018-08-22T07:22:28.864Z,28.80
2018-08-22T07:23:06.840Z,28.90
2018-08-22T07:23:44.941Z,28.90
2018-08-22T07:24:22.805Z,28.90
2018-08-22T07:25:00.728Z,28.90
2018-08-22T07:25:38.637Z,28.90
2018-08-22T07:26:16.485Z,28.90
2018-08-22T07:26:54.543Z,28.90
2018-08-22T07:27:32.501Z,28.90
2018-08-22T07:28:11.081Z,28.90
2018-08-22T07:28:49.088Z,28.90
2018-08-22T07:29:26.964Z,28.90
2018-08-22T07:30:05.048Z,28.90
2018-08-22T07:30:44.360Z,29.00
2018-08-22T07:31:22.514Z,29.00
2018-08-22T07:32:01.152Z,29.00
2018-08-22T07:32:39.862Z,29.00
2018-08-22T07:33:17.862Z,29.00
2018-08-22T07:33:55.784Z,29.10
2018-08-22T07:34:33.656Z,29.10
2018-08-22T07:35:11.576Z,29.10
2018-08-22T07:35:49.574Z,29.10
2018-08-22T07:36:27.832Z,29.10
2018-08-22T07:37:05.804Z,29.10
2018-08-22T07:37:43.942Z,29.10
2018-08-22T07:38:21.838Z,29.10
2018-08-22T07:38:59.660Z,29.20
2018-08-22T07:39:37.740Z,29.10
2018-08-22T07:40:16.604Z,29.10
2018-08-22T07:40:54.466Z,29.10
2018-08-22T07:41:32.381Z,29.10
2018-08-22T07:42:10.483Z,29.10
2018-08-22T07:42:48.391Z,29.10
2018-08-22T07:43:26.345Z,29.10
2018-08-22T07:44:04.090Z,29.10
2018-08-22T07:44:42.557Z,29.10
2018-08-22T07:45:20.665Z,29.10
2018-08-22T07:45:58.514Z,29.00
2018-08-22T07:46:37.365Z,29.00
2018-08-22T07:47:15.386Z,29.00
2018-08-22T07:47:53.502Z,29.00
2018-08-22T07:48:31.592Z,29.00
2018-08-22T07:49:09.578Z,29.00
2018-08-22T07:49:47.497Z,29.00
2018-08-22T07:50:25.549Z,29.00
2018-08-22T07:51:03.546Z,29.00
2018-08-22T07:51:41.694Z,29.00
2018-08-22T07:52:19.541Z,29.00
2018-08-22T07:53:01.616Z,29.00
2018-08-22T07:53:39.509Z,29.10
2018-08-22T07:54:17.294Z,29.10
2018-08-22T07:54:55.297Z,29.10
2018-08-22T07:55:35.246Z,29.10
2018-08-22T07:56:13.804Z,29.10
2018-08-22T07:56:51.613Z,29.10
2018-08-22T07:57:29.480Z,29.10
2018-08-22T07:58:07.555Z,29.00
2018-08-22T07:58:45.447Z,29.00
2018-08-22T07:59:23.464Z,29.00
2018-08-22T08:00:01.472Z,29.00
2018-08-22T08:00:39.518Z,29.00
2018-08-22T08:01:17.550Z,29.00
2018-08-22T08:01:55.539Z,29.00
2018-08-22T08:02:33.521Z,29.00
2018-08-22T08:03:11.409Z,29.00
2018-08-22T08:03:49.450Z,28.90
2018-08-22T08:04:27.492Z,28.90
2018-08-22T08:05:05.553Z,28.90
2018-08-22T08:05:45.640Z,28.90
2018-08-22T08:06:23.616Z,28.90
2018-08-22T08:07:01.521Z,28.90
2018-08-22T08:07:39.527Z,28.90
2018-08-22T08:08:17.482Z,28.90
2018-08-22T08:08:55.441Z,28.90
2018-08-22T08:09:33.380Z,28.90
2018-08-22T08:10:12.939Z,28.90
2018-08-22T08:10:50.976Z,28.80
2018-08-22T08:11:28.913Z,28.80
2018-08-22T08:12:06.757Z,28.80
2018-08-22T08:12:44.602Z,28.80
2018-08-22T08:13:26.455Z,28.80
2018-08-22T08:14:04.305Z,28.70
2018-08-22T08:14:42.699Z,28.80
2018-08-22T08:15:20.736Z,28.80
2018-08-22T08:15:58.917Z,28.80
2018-08-22T08:16:36.903Z,28.80
2018-08-22T08:17:14.923Z,28.80
2018-08-22T08:17:53.000Z,28.80
2018-08-22T08:18:31.044Z,28.80
2018-08-22T08:19:09.612Z,28.80
2018-08-22T08:19:47.505Z,28.80
2018-08-22T08:20:25.917Z,28.90
2018-08-22T08:21:03.830Z,28.90
2018-08-22T08:21:41.773Z,28.90
2018-08-22T08:22:19.703Z,28.90
2018-08-22T08:22:57.816Z,28.90
2018-08-22T08:23:35.761Z,28.90
2018-08-22T08:24:13.688Z,28.90
2018-08-22T08:24:51.718Z,28.90
2018-08-22T08:25:29.602Z,28.90
2018-08-22T08:26:07.544Z,28.90
2018-08-22T08:26:45.430Z,28.90
2018-08-22T08:27:23.617Z,28.90
2018-08-22T08:28:01.567Z,28.90
2018-08-22T08:28:39.438Z,28.90
2018-08-22T08:29:17.401Z,28.90
2018-08-22T08:29:55.211Z,28.90
2018-08-22T08:30:33.216Z,28.90
2018-08-22T08:31:11.204Z,28.90
2018-08-22T08:31:49.158Z,29.00
2018-08-22T08:32:27.064Z,28.90
2018-08-22T08:33:05.032Z,28.80
2018-08-22T08:33:42.989Z,28.80
2018-08-22T08:34:21.769Z,28.80
2018-08-22T08:34:59.638Z,28.80
2018-08-22T08:35:38.771Z,28.80
2018-08-22T08:36:16.835Z,28.80
2018-08-22T08:36:54.759Z,28.80
2018-08-22T08:37:32.620Z,28.80
2018-08-22T08:38:10.810Z,28.90
2018-08-22T08:38:48.624Z,28.90
2018-08-22T08:39:27.530Z,28.90
2018-08-22T08:40:06.081Z,28.90
2018-08-22T08:40:44.046Z,28.90
2018-08-22T08:41:22.043Z,28.90
2018-08-22T08:41:59.942Z,28.90
2018-08-22T08:42:37.831Z,28.90
2018-08-22T08:43:15.847Z,28.90
2018-08-22T08:43:53.879Z,28.90
2018-08-22T08:44:31.834Z,28.90
2018-08-22T08:45:13.084Z,28.90
2018-08-22T08:45:51.014Z,28.90
2018-08-22T08:46:28.927Z,28.90
2018-08-22T08:47:06.676Z,28.90
2018-08-22T08:47:44.662Z,28.90
2018-08-22T08:48:22.579Z,28.90
2018-08-22T08:49:00.541Z,28.90
2018-08-22T08:49:38.664Z,28.90
2018-08-22T08:50:16.645Z,28.90
2018-08-22T08:50:54.524Z,28.80
2018-08-22T08:51:32.324Z,28.80
2018-08-22T08:52:10.491Z,28.80
2018-08-22T08:52:48.440Z,28.80
2018-08-22T08:53:26.478Z,28.80
2018-08-22T08:54:04.464Z,28.80
2018-08-22T08:54:42.344Z,28.80
2018-08-22T08:55:20.343Z,28.70
2018-08-22T08:55:58.210Z,28.70
2018-08-22T08:56:37.049Z,28.70
2018-08-22T08:57:15.023Z,28.70
2018-08-22T08:57:52.922Z,28.70
2018-08-22T08:58:30.919Z,28.70
2018-08-22T08:59:09.884Z,28.80
2018-08-22T08:59:47.903Z,28.80
2018-08-22T09:00:25.903Z,28.80
2018-08-22T09:01:03.886Z,28.80
2018-08-22T09:01:42.877Z,28.80
2018-08-22T09:02:20.817Z,28.80
2018-08-22T09:02:58.804Z,28.80
2018-08-22T09:03:36.768Z,28.80
2018-08-22T09:04:14.694Z,28.80
2018-08-22T09:04:52.561Z,28.80
2018-08-22T09:05:30.474Z,28.90
2018-08-22T09:06:08.450Z,28.90
2018-08-22T09:06:46.307Z,28.90
2018-08-22T09:07:24.194Z,28.90
2018-08-22T09:08:02.053Z,28.90
2018-08-22T09:08:40.211Z,28.90
2018-08-22T09:09:18.157Z,28.90
2018-08-22T09:09:56.159Z,28.90
2018-08-22T09:10:34.112Z,28.90
2018-08-22T09:11:12.122Z,28.80
2018-08-22T09:12:04.456Z,28.80
2018-08-22T09:12:42.421Z,28.80
2018-08-22T09:13:20.468Z,28.80
2018-08-22T09:14:41.680Z,28.90
2018-08-22T09:15:19.823Z,28.90
2018-08-22T09:15:57.701Z,28.90
2018-08-22T09:16:35.555Z,28.90
2018-08-22T09:17:13.619Z,28.90
2018-08-22T09:17:51.737Z,28.90
2018-08-22T09:18:29.603Z,28.90
2018-08-22T09:19:07.683Z,28.90
2018-08-22T09:19:45.636Z,28.90
2018-08-22T09:20:23.600Z,28.90
2018-08-22T09:21:01.525Z,28.90
2018-08-22T09:21:39.511Z,28.90
2018-08-22T09:22:18.272Z,28.90
2018-08-22T09:22:56.225Z,28.90
2018-08-22T09:23:35.502Z,28.90
2018-08-22T09:24:19.409Z,28.80
2018-08-22T09:24:59.353Z,28.80
2018-08-22T09:26:33.539Z,28.80
2018-08-22T09:27:11.443Z,28.80
2018-08-22T09:27:49.358Z,28.80
2018-08-22T09:28:27.448Z,28.80
2018-08-22T09:29:05.465Z,28.80
2018-08-22T09:29:43.462Z,28.80
2018-08-22T09:30:21.517Z,28.80
2018-08-22T09:31:01.957Z,28.80
2018-08-22T09:31:40.587Z,28.70
2018-08-22T09:32:18.566Z,28.70
2018-08-22T09:32:56.584Z,28.70
2018-08-22T09:33:35.325Z,28.70
2018-08-22T09:34:13.282Z,28.70
2018-08-22T09:34:51.858Z,28.70
2018-08-22T09:35:30.394Z,28.70
2018-08-22T09:36:08.313Z,28.70
2018-08-22T09:36:46.246Z,28.70
2018-08-22T09:37:24.247Z,28.80
2018-08-22T09:38:02.264Z,28.80
2018-08-22T09:38:40.152Z,28.80
2018-08-22T09:39:18.235Z,28.80
2018-08-22T09:39:57.394Z,28.80
2018-08-22T09:40:35.337Z,28.80
2018-08-22T09:41:13.241Z,28.70
2018-08-22T09:41:51.076Z,28.70
2018-08-22T09:42:28.878Z,28.70
2018-08-22T09:43:06.755Z,28.60
2018-08-22T09:43:44.663Z,28.60
2018-08-22T09:44:22.637Z,28.60
2018-08-22T09:45:01.431Z,28.60
2018-08-22T09:45:39.222Z,28.60
2018-08-22T09:46:18.026Z,28.70
2018-08-22T09:46:56.890Z,28.70
2018-08-22T09:47:35.521Z,28.70
2018-08-22T09:48:14.274Z,28.70
2018-08-22T09:48:52.040Z,28.80
2018-08-22T09:49:29.950Z,28.80
2018-08-22T09:50:07.908Z,28.80
2018-08-22T09:50:48.316Z,28.80
2018-08-22T09:51:26.133Z,28.80
2018-08-22T09:52:04.050Z,28.90
2018-08-22T09:52:42.154Z,28.90
2018-08-22T09:53:21.991Z,28.90
2018-08-22T09:54:00.938Z,28.90
2018-08-22T09:54:47.041Z,28.90
2018-08-22T09:55:24.968Z,28.90
2018-08-22T09:56:03.873Z,28.90
2018-08-22T09:56:41.857Z,28.90
2018-08-22T09:57:19.767Z,28.90
2018-08-22T09:57:57.629Z,28.90
2018-08-22T09:58:35.618Z,28.90
2018-08-22T09:59:13.793Z,28.80
2018-08-22T09:59:51.608Z,28.90
2018-08-22T10:00:33.728Z,28.80
2018-08-22T10:01:15.721Z,28.80
2018-08-22T10:01:53.726Z,28.80
2018-08-22T10:02:31.615Z,28.80
2018-08-22T10:03:09.630Z,28.80
2018-08-22T10:03:57.082Z,28.80
2018-08-22T10:04:35.131Z,28.70
2018-08-22T10:05:13.192Z,28.70
2018-08-22T10:05:51.073Z,28.70
2018-08-22T10:06:41.573Z,28.60
2018-08-22T10:07:19.479Z,28.60
2018-08-22T10:07:57.721Z,28.60
2018-08-22T10:08:39.844Z,28.60
2018-08-22T10:09:24.764Z,28.60
2018-08-22T10:10:06.198Z,28.60
2018-08-22T10:10:47.951Z,28.60
2018-08-22T10:11:28.839Z,28.60
2018-08-22T10:12:09.547Z,28.70
2018-08-22T10:12:47.590Z,28.70
2018-08-22T10:13:26.349Z,28.70
2018-08-22T10:14:05.202Z,28.80
2018-08-22T10:14:44.498Z,28.80
2018-08-22T10:15:23.608Z,28.80
2018-08-22T10:16:03.816Z,28.80
2018-08-22T10:16:43.242Z,28.80
2018-08-22T10:17:23.210Z,28.80
2018-08-22T10:18:03.234Z,28.80
2018-08-22T10:18:42.454Z,28.80
2018-08-22T10:19:23.180Z,28.80
2018-08-22T10:20:05.987Z,28.80
2018-08-22T10:20:46.234Z,28.80
2018-08-22T10:21:24.683Z,28.80
2018-08-22T10:22:03.737Z,28.80
2018-08-22T10:22:42.576Z,28.80
2018-08-22T10:23:22.083Z,28.80
2018-08-22T10:24:00.000Z,28.80
2018-08-22T10:24:41.468Z,28.80
2018-08-22T10:25:20.255Z,28.80
2018-08-22T10:26:00.799Z,28.80
2018-08-22T10:26:42.488Z,28.80
2018-08-22T10:27:23.807Z,28.80
2018-08-22T10:28:03.576Z,28.80
2018-08-22T10:28:43.625Z,28.80
2018-08-22T10:29:24.450Z,28.70
2018-08-22T10:30:07.621Z,28.80
2018-08-22T10:30:49.599Z,28.70
2018-08-22T10:31:39.524Z,28.70
2018-08-22T10:32:22.792Z,28.70
2018-08-22T10:33:07.796Z,28.70
2018-08-22T10:33:58.921Z,28.70
2018-08-22T10:34:39.749Z,28.70
2018-08-22T10:35:20.291Z,28.70
2018-08-22T10:36:00.017Z,28.70
2018-08-22T10:36:44.699Z,28.70
2018-08-22T10:37:25.352Z,28.60
2018-08-22T10:38:04.676Z,28.60
2018-08-22T10:38:44.567Z,28.60
2018-08-22T10:39:23.419Z,28.60
2018-08-22T10:40:02.532Z,28.60
2018-08-22T10:40:41.701Z,28.60
2018-08-22T10:41:21.535Z,28.60
2018-08-22T10:42:00.061Z,28.60
2018-08-22T10:42:40.063Z,28.60
2018-08-22T10:43:29.689Z,28.60
2018-08-22T10:44:13.877Z,28.60
2018-08-22T10:44:53.728Z,28.50
2018-08-22T10:45:33.381Z,28.60
2018-08-22T10:46:18.668Z,28.60
2018-08-22T10:46:58.341Z,28.60
2018-08-22T10:47:40.583Z,28.60
2018-08-22T10:48:20.304Z,28.60
2018-08-22T10:48:59.117Z,28.60
2018-08-22T10:49:38.202Z,28.60
2018-08-22T10:50:16.410Z,28.60
2018-08-22T10:50:54.303Z,28.60
2018-08-22T10:51:32.794Z,28.60
2018-08-22T10:52:10.712Z,28.60
2018-08-22T10:52:48.778Z,28.60
2018-08-22T10:53:26.782Z,28.60
2018-08-22T10:54:04.940Z,28.60
2018-08-22T10:54:42.836Z,28.60
2018-08-22T10:55:20.751Z,28.60
2018-08-22T10:55:58.633Z,28.50
2018-08-22T10:56:36.445Z,28.50
2018-08-22T10:57:14.421Z,28.50
2018-08-22T10:57:52.204Z,28.50
2018-08-22T10:58:30.251Z,28.60
2018-08-22T10:59:08.063Z,28.60
2018-08-22T10:59:46.028Z,28.60
2018-08-22T11:00:23.997Z,28.60
2018-08-22T11:01:01.964Z,28.70
2018-08-22T11:01:39.958Z,28.70
2018-08-22T11:02:18.004Z,28.80
2018-08-22T11:02:56.009Z,28.80
2018-08-22T11:03:33.972Z,28.80
2018-08-22T11:04:11.949Z,28.80
2018-08-22T11:04:49.746Z,28.80
2018-08-22T11:05:27.738Z,28.80
2018-08-22T11:06:05.673Z,28.80
2018-08-22T11:06:43.554Z,28.80
2018-08-22T11:07:21.581Z,28.70
2018-08-22T11:07:59.558Z,28.70
2018-08-22T11:08:38.369Z,28.70
2018-08-22T11:09:16.238Z,28.70
2018-08-22T11:09:54.332Z,28.70
2018-08-22T11:10:32.672Z,28.70
2018-08-22T11:11:10.692Z,28.70
2018-08-22T11:11:48.632Z,28.70
2018-08-22T11:12:26.542Z,28.70
2018-08-22T11:13:04.416Z,28.70
2018-08-22T11:13:42.330Z,28.70
2018-08-22T11:14:20.369Z,28.70
2018-08-22T11:14:58.184Z,28.70
2018-08-22T11:15:36.171Z,28.70
2018-08-22T11:16:13.994Z,28.70
2018-08-22T11:16:51.945Z,28.70
2018-08-22T11:17:29.953Z,28.60
2018-08-22T11:18:07.966Z,28.60
2018-08-22T11:18:45.816Z,28.60
2018-08-22T11:19:23.811Z,28.50
2018-08-22T11:20:01.704Z,28.50
2018-08-22T11:21:00.458Z,28.50
2018-08-22T11:21:47.197Z,28.40
2018-08-22T11:22:33.950Z,28.40
2018-08-22T11:23:20.637Z,28.40
2018-08-22T11:24:07.536Z,28.30
2018-08-22T11:24:54.350Z,28.40
2018-08-22T11:25:41.416Z,28.40
2018-08-22T11:26:28.052Z,28.40
2018-08-22T11:27:14.901Z,28.50
2018-08-22T11:28:01.755Z,28.50
2018-08-22T11:28:48.894Z,28.50
2018-08-22T11:29:35.806Z,28.40
2018-08-22T11:30:22.541Z,28.40
2018-08-22T11:31:09.352Z,28.40
2018-08-22T11:31:56.209Z,28.50
2018-08-22T11:32:42.924Z,28.50
2018-08-22T11:33:29.921Z,28.50
2018-08-22T11:34:16.713Z,28.50
2018-08-22T11:34:52.862Z,28.50
2018-08-22T11:35:27.660Z,28.50
2018-08-22T11:36:02.344Z,28.50
2018-08-22T11:36:37.699Z,28.50
2018-08-22T11:37:16.728Z,28.50
2018-08-22T11:37:54.849Z,28.50
2018-08-22T11:38:32.889Z,28.50
2018-08-22T11:39:11.858Z,28.50
2018-08-22T11:39:51.351Z,28.40
2018-08-22T11:40:29.533Z,28.40
2018-08-22T11:41:07.672Z,28.40
2018-08-22T11:41:45.815Z,28.40
2018-08-22T11:42:23.776Z,28.40
2018-08-22T11:43:01.652Z,28.40
2018-08-22T11:43:40.172Z,28.50
2018-08-22T11:44:18.317Z,28.50
2018-08-22T11:44:56.344Z,28.50
2018-08-22T11:45:34.698Z,28.50
2018-08-22T11:46:12.732Z,28.60
2018-08-22T11:46:50.790Z,28.50
2018-08-22T11:47:28.882Z,28.50
2018-08-22T11:48:06.905Z,28.50
2018-08-22T11:48:44.855Z,28.60
2018-08-22T11:49:23.930Z,28.50
2018-08-22T11:50:01.990Z,28.60
2018-08-22T11:50:40.012Z,28.60
2018-08-22T11:51:18.118Z,28.60
2018-08-22T11:51:56.971Z,28.60
2018-08-22T11:52:34.957Z,28.60
2018-08-22T11:53:12.945Z,28.60
2018-08-22T11:53:51.067Z,28.60
2018-08-22T11:54:29.470Z,28.60
2018-08-22T11:55:07.423Z,28.50
2018-08-22T11:55:45.568Z,28.60
2018-08-22T11:56:23.529Z,28.60
2018-08-22T11:57:01.695Z,28.60
2018-08-22T11:57:39.574Z,28.60
2018-08-22T11:58:17.564Z,28.60
2018-08-22T11:58:55.647Z,28.60
2018-08-22T11:59:33.805Z,28.60
2018-08-22T12:00:11.855Z,28.60
2018-08-22T12:00:49.796Z,28.60
2018-08-22T12:01:27.878Z,28.60
2018-08-22T12:02:05.772Z,28.60
2018-08-22T12:02:43.597Z,28.50
2018-08-22T12:03:21.569Z,28.50
2018-08-22T12:03:59.558Z,28.50
2018-08-22T12:04:37.613Z,28.50
2018-08-22T12:05:15.568Z,28.50
2018-08-22T12:05:54.644Z,28.40
2018-08-22T12:06:32.866Z,28.40
2018-08-22T12:07:11.136Z,28.40
2018-08-22T12:07:49.173Z,28.40
2018-08-22T12:08:27.356Z,28.40
2018-08-22T12:09:06.901Z,28.30
2018-08-22T12:09:45.222Z,28.30
2018-08-22T12:10:26.502Z,28.30
2018-08-22T12:11:04.684Z,28.30
2018-08-22T12:11:43.281Z,28.30
2018-08-22T12:12:21.520Z,28.30
2018-08-22T12:12:59.581Z,28.30
2018-08-22T12:13:37.596Z,28.30
2018-08-22T12:14:15.611Z,28.30
2018-08-22T12:14:53.587Z,28.30
2018-08-22T12:15:31.571Z,28.20
2018-08-22T12:16:09.619Z,28.20
2018-08-22T12:16:47.585Z,28.20
2018-08-22T12:17:25.507Z,28.20
2018-08-22T12:18:03.508Z,28.10
2018-08-22T12:18:41.562Z,28.10
2018-08-22T12:19:19.738Z,28.10
2018-08-22T12:19:57.617Z,28.10
2018-08-22T12:20:35.653Z,28.00
2018-08-22T12:21:13.561Z,28.00
2018-08-22T12:21:51.641Z,28.00
2018-08-22T12:22:29.569Z,27.90
2018-08-22T12:23:07.570Z,27.90
2018-08-22T12:23:45.591Z,27.90
2018-08-22T12:24:23.533Z,27.90
2018-08-22T12:25:01.469Z,27.90
2018-08-22T12:25:39.506Z,27.90
2018-08-22T12:26:17.468Z,27.90
2018-08-22T12:26:55.263Z,27.90
2018-08-22T12:27:33.281Z,27.90
2018-08-22T12:28:11.321Z,27.90
2018-08-22T12:28:49.327Z,27.90
2018-08-22T12:29:27.388Z,27.90
2018-08-22T12:30:05.329Z,27.90
2018-08-22T12:30:43.233Z,27.90
2018-08-22T12:31:21.234Z,27.90
2018-08-22T12:31:59.124Z,27.80
2018-08-22T12:32:37.094Z,27.80
2018-08-22T12:33:15.101Z,27.80
2018-08-22T12:33:53.134Z,27.80
2018-08-22T12:34:31.226Z,27.80
2018-08-22T12:35:09.714Z,27.80
2018-08-22T12:35:47.721Z,27.80
2018-08-22T12:36:25.845Z,27.80
2018-08-22T12:37:03.917Z,27.80
2018-08-22T12:37:41.840Z,27.80
2018-08-22T12:38:19.825Z,27.80
2018-08-22T12:38:57.642Z,27.90
2018-08-22T12:39:35.775Z,27.90
2018-08-22T12:40:14.748Z,27.90
2018-08-22T12:40:52.872Z,27.80
2018-08-22T12:41:30.983Z,27.80
2018-08-22T12:42:09.128Z,27.70
2018-08-22T12:42:46.985Z,27.70
2018-08-22T12:43:24.801Z,27.80
2018-08-22T12:44:02.865Z,27.80
2018-08-22T12:44:40.929Z,27.80
2018-08-22T12:45:18.996Z,27.80
2018-08-22T12:45:56.934Z,27.80
2018-08-22T12:46:34.869Z,27.70
2018-08-22T12:47:12.970Z,27.70
2018-08-22T12:47:50.944Z,27.70
2018-08-22T12:48:29.028Z,27.70
2018-08-22T12:49:06.898Z,27.70
2018-08-22T12:49:44.839Z,27.70
2018-08-22T12:50:22.862Z,27.70
2018-08-22T12:51:00.820Z,27.70
2018-08-22T12:51:38.803Z,27.70
2018-08-22T12:52:16.902Z,27.70
2018-08-22T12:52:54.989Z,27.70
2018-08-22T12:53:33.127Z,27.70
2018-08-22T12:54:11.070Z,27.70
2018-08-22T12:54:49.138Z,27.70
2018-08-22T12:55:27.087Z,27.70
2018-08-22T12:56:05.075Z,27.70
2018-08-22T12:56:43.080Z,27.80
2018-08-22T12:57:20.972Z,27.80
2018-08-22T12:57:58.976Z,27.80
2018-08-22T12:58:36.995Z,27.80
2018-08-22T12:59:14.935Z,27.80
2018-08-22T12:59:52.922Z,27.80
2018-08-22T13:00:31.070Z,27.90
2018-08-22T13:01:09.402Z,27.80
2018-08-22T13:01:47.479Z,27.80
2018-08-22T13:02:25.511Z,27.80
2018-08-22T13:03:03.535Z,27.80
2018-08-22T13:03:41.830Z,27.80
2018-08-22T13:04:19.895Z,27.80
2018-08-22T13:04:57.864Z,27.80
2018-08-22T13:05:35.933Z,27.80
2018-08-22T13:06:13.786Z,27.90
2018-08-22T13:06:51.817Z,27.80
2018-08-22T13:07:30.130Z,27.90
2018-08-22T13:08:08.293Z,27.90
2018-08-22T13:08:46.381Z,27.90
2018-08-22T13:09:24.479Z,27.90
2018-08-22T13:10:02.585Z,27.90
2018-08-22T13:10:40.463Z,27.90
2018-08-22T13:11:18.471Z,27.90
2018-08-22T13:11:56.446Z,27.90
2018-08-22T13:12:34.623Z,27.90
2018-08-22T13:13:12.561Z,27.90
2018-08-22T13:13:50.550Z,27.90
2018-08-22T13:14:29.301Z,28.00
2018-08-22T13:15:07.333Z,28.00
2018-08-22T13:15:45.275Z,28.00
2018-08-22T13:16:23.141Z,28.00
2018-08-22T13:17:01.119Z,28.00
2018-08-22T13:17:39.180Z,28.00
2018-08-22T13:18:17.077Z,28.00
2018-08-22T13:18:55.175Z,28.00
2018-08-22T13:19:33.237Z,28.00
2018-08-22T13:20:11.195Z,28.00
2018-08-22T13:20:49.133Z,28.00
2018-08-22T13:21:27.049Z,28.00
2018-08-22T13:22:05.125Z,28.00
2018-08-22T13:22:43.075Z,28.00
2018-08-22T13:23:20.900Z,27.90
2018-08-22T13:23:58.943Z,27.90
2018-08-22T13:24:37.116Z,27.90
2018-08-22T13:25:15.217Z,27.90
2018-08-22T13:25:53.289Z,27.90
2018-08-22T13:26:31.696Z,27.90
2018-08-22T13:27:09.757Z,27.90
2018-08-22T13:27:47.623Z,27.90
2018-08-22T13:29:34.520Z,27.90
2018-08-22T13:30:12.615Z,28.00
2018-08-22T13:30:50.723Z,28.00
2018-08-22T13:31:28.681Z,28.00
2018-08-22T13:32:06.487Z,28.00
2018-08-22T13:32:44.416Z,28.00
2018-08-22T13:33:22.605Z,27.90
2018-08-22T13:34:00.628Z,27.90
2018-08-22T13:34:38.672Z,27.90
2018-08-22T13:35:16.635Z,27.90
2018-08-22T13:35:54.519Z,27.90
2018-08-22T13:36:32.529Z,27.90
2018-08-22T13:37:10.792Z,27.80
2018-08-22T13:37:48.839Z,27.80
2018-08-22T13:38:27.146Z,27.70
2018-08-22T13:39:06.031Z,27.70
2018-08-22T13:39:44.097Z,27.70
2018-08-22T13:40:22.341Z,27.70
2018-08-22T13:41:00.283Z,27.80
2018-08-22T13:41:38.179Z,27.70
2018-08-22T13:42:16.311Z,27.70
2018-08-22T13:42:54.394Z,27.70
2018-08-22T13:43:32.709Z,27.80
2018-08-22T13:44:10.688Z,27.80
2018-08-22T13:44:48.672Z,27.80
2018-08-22T13:45:26.619Z,27.70
2018-08-22T13:46:04.747Z,27.70
2018-08-22T13:46:42.737Z,27.70
2018-08-22T13:47:20.757Z,27.70
2018-08-22T13:47:58.688Z,27.70